Time;durP1;ratioP1;P1;durP2;ratioP2;P2;SDS_P1;SDS_P2;PMS_P1;PMS_P2;Temp;Humidity;BMP_temperature;BMP_pressure;BME280_temperature;BME280_humidity;BME280_pressure;Samples;Min_cycle;Max_cycle;Signal;HPM_P1;HPM_P2
2022/01/18 00:01:53;;;;;;;;;;;;;;;;;;5048076;28;19912;-81
2022/01/18 00:04:19;;;;;;;;;;;;;;;;;;5049677;28;20373;-82
2022/01/18 00:06:48;;;;;;;;;;;;;;;;;;5047463;28;19936;-83
2022/01/18 00:09:14;;;;;;;;;;;;;;;;;;5048225;28;19921;-82
2022/01/18 00:11:47;;;;;;;;;;;;;;;;;;5049969;28;19936;-82
2022/01/18 00:14:23;;;;;;;;;;;;;;;;;;5051308;28;19924;-82
2022/01/18 00:17:01;;;;;;;;;;;;;;;;;;5045975;28;19952;-83
2022/01/18 00:19:27;;;;;;;;;;;;;;;;;;5051815;28;19916;-82
2022/01/18 00:22:14;;;;;;;;;;;;;;;;;;5062660;28;19963;-80
2022/01/18 00:24:40;;;;;;;;;;;;;;;;;;5059101;28;19917;-82
2022/01/18 00:27:09;;;;;;;;;;;;;;;;;;5058196;28;20223;-82
2022/01/18 00:29:39;;;;;;;;;;;;;;;;;;5056960;28;19916;-82
2022/01/18 00:32:25;;;;;;;;;;;;;;;;;;5051223;28;19995;-82
2022/01/18 00:34:53;;;;;;;;;;;;;;;;;;5056879;28;19991;-82
2022/01/18 00:40:13;;;;;;;;;;;;;;;;;;5038434;28;19931;-83
2022/01/18 00:42:38;;;;;;;;;;;;;;;;;;5056731;28;20007;-82
2022/01/18 00:45:04;;;;;;;;;;;;;;;;;;5056869;28;19917;-82
2022/01/18 00:47:29;;;;;;;;;;;;;;;;;;5036338;28;20271;-83
2022/01/18 00:50:01;;;;;;;;;;;;;;;;;;5054605;28;19921;-81
2022/01/18 00:52:27;;;;;;;;;;;;;;;;;;5056852;28;19944;-80
2022/01/18 00:54:55;;;;;;;;;;;;;;;;;;5056263;28;19916;-82
2022/01/18 00:57:20;;;;;;;;;;;;;;;;;;5056129;28;20369;-83
2022/01/18 00:59:47;;;;;;;;;;;;;;;;;;5055447;28;19935;-80
2022/01/18 01:02:12;;;;;;;;;;;;;;;;;;5055883;28;19917;-81
2022/01/18 01:04:43;;;;;;;;;;;;;;;;;;5056055;28;20423;-81
2022/01/18 01:07:08;;;;;;;;;;;;;;;;;;5054739;28;19917;-81
2022/01/18 01:09:33;;;;;;;;;;;;;;;;;;5056143;28;19921;-81
2022/01/18 01:11:59;;;;;;;;;;;;;;;;;;5055255;28;19971;-79
2022/01/18 01:14:26;;;;;;;;;;;;;;;;;;5055915;28;19916;-81
2022/01/18 01:43:35;;;;;;;;;;;;;;;;;;5054515;28;20365;-82
2022/01/18 01:46:02;;;;;;;;;;;;;;;;;;5055017;28;19939;-82
2022/01/18 01:48:27;;;;;;;;;;;;;;;;;;5054675;28;20030;-82
2022/01/18 01:51:02;;;;;;;;;;;;;;;;;;5055431;28;19971;-81
2022/01/18 01:53:28;;;;;;;;;;;;;;;;;;5054877;28;19952;-81
2022/01/18 01:55:53;;;;;;;;;;;;;;;;;;5054930;28;19967;-82
2022/01/18 01:58:19;;;;;;;;;;;;;;;;;;5053215;28;19920;-82
2022/01/18 02:00:49;;;;;;;;;;;;;;;;;;5055107;28;20231;-83
2022/01/18 02:03:17;;;;;;;;;;;;;;;;;;5053922;28;19916;-79
2022/01/18 02:05:42;;;;;;;;;;;;;;;;;;5053894;28;19978;-83
2022/01/18 02:08:07;;;;;;;;;;;;;;;;;;5054418;28;20231;-81
2022/01/18 02:10:37;;;;;;;;;;;;;;;;;;5053354;28;20534;-80
2022/01/18 02:13:08;;;;;;;;;;;;;;;;;;5053755;28;19917;-81
2022/01/18 02:15:40;;;;;;;;;;;;;;;;;;5053527;28;20365;-81
2022/01/18 02:23:36;;;;;;;;;;;;;;;;;;5053914;28;19923;-81
2022/01/18 02:26:01;;;;;;;;;;;;;;;;;;5052691;28;19920;-82
2022/01/18 02:28:26;;;;;;;;;;;;;;;;;;5050400;28;19917;-81
2022/01/18 02:30:52;;;;;;;;;;;;;;;;;;5055666;28;19927;-79
2022/01/18 02:33:17;;;;;;;;;;;;;;;;;;5040559;28;20267;-80
2022/01/18 02:35:46;;;;;;;;;;;;;;;;;;5046565;28;19927;-83
2022/01/18 02:38:11;;;;;;;;;;;;;;;;;;5054274;28;20039;-82
2022/01/18 02:40:36;;;;;;;;;;;;;;;;;;5053194;28;19948;-82
2022/01/18 02:43:46;;;;;;;;;;;;;;;;;;5053542;28;20345;-83
2022/01/18 02:45:48;;;;;;;;;;;;;;;;;;5048000;28;19916;-81
2022/01/18 02:48:14;;;;;;;;;;;;;;;;;;5053937;28;19928;-81
2022/01/18 02:50:39;;;;;;;;;;;;;;;;;;5054394;28;19927;-81
2022/01/18 02:53:04;;;;;;;;;;;;;;;;;;5053334;28;20046;-81
2022/01/18 02:55:30;;;;;;;;;;;;;;;;;;5053938;28;19917;-81
2022/01/18 02:58:02;;;;;;;;;;;;;;;;;;5053429;28;20238;-78
2022/01/18 03:00:32;;;;;;;;;;;;;;;;;;5046855;28;20019;-80
2022/01/18 03:03:16;;;;;;;;;;;;;;;;;;5042867;28;19913;-81
2022/01/18 03:05:44;;;;;;;;;;;;;;;;;;5052629;28;19920;-80
2022/01/18 03:08:10;;;;;;;;;;;;;;;;;;5035287;28;19928;-81
2022/01/18 03:10:36;;;;;;;;;;;;;;;;;;5053458;28;19921;-81
2022/01/18 03:13:01;;;;;;;;;;;;;;;;;;5054117;28;19916;-82
2022/01/18 03:15:26;;;;;;;;;;;;;;;;;;5053571;28;19974;-80
2022/01/18 03:17:52;;;;;;;;;;;;;;;;;;5054090;28;20452;-81
2022/01/18 03:20:20;;;;;;;;;;;;;;;;;;5052554;28;19940;-82
2022/01/18 03:22:47;;;;;;;;;;;;;;;;;;5054169;28;19955;-81
2022/01/18 03:28:04;;;;;;;;;;;;;;;;;;5061598;28;19958;-82
2022/01/18 03:30:30;;;;;;;;;;;;;;;;;;5059438;28;19983;-82
2022/01/18 03:32:55;;;;;;;;;;;;;;;;;;5056949;28;19920;-82
2022/01/18 03:35:22;;;;;;;;;;;;;;;;;;5057139;28;19917;-80
2022/01/18 03:37:47;;;;;;;;;;;;;;;;;;5053014;28;19924;-82
2022/01/18 03:40:13;;;;;;;;;;;;;;;;;;5054498;28;19916;-81
2022/01/18 03:45:04;;;;;;;;;;;;;;;;;;5057950;28;19917;-81
2022/01/18 03:47:32;;;;;;;;;;;;;;;;;;5056830;28;19978;-82
2022/01/18 03:49:58;;;;;;;;;;;;;;;;;;5062269;28;19974;-79
2022/01/18 03:52:23;;;;;;;;;;;;;;;;;;5060444;28;19925;-82
2022/01/18 03:54:50;;;;;;;;;;;;;;;;;;5059924;28;20345;-82
2022/01/18 03:57:20;;;;;;;;;;;;;;;;;;5057123;28;19927;-82
2022/01/18 03:59:45;;;;;;;;;;;;;;;;;;5056850;28;20003;-82
2022/01/18 04:02:13;;;;;;;;;;;;;;;;;;5056231;28;20019;-81
2022/01/18 04:04:38;;;;;;;;;;;;;;;;;;5055784;28;19916;-81
2022/01/18 04:07:06;;;;;;;;;;;;;;;;;;5057213;28;19927;-83
2022/01/18 04:09:31;;;;;;;;;;;;;;;;;;5055412;28;19936;-81
2022/01/18 04:11:56;;;;;;;;;;;;;;;;;;5056066;28;19917;-81
2022/01/18 04:14:23;;;;;;;;;;;;;;;;;;5054521;28;19970;-82
2022/01/18 04:27:50;;;;;;;;;;;;;;;;;;5056792;28;20020;-82
2022/01/18 04:30:15;;;;;;;;;;;;;;;;;;5061704;28;19948;-81
2022/01/18 04:32:43;;;;;;;;;;;;;;;;;;5056663;28;19960;-81
2022/01/18 04:35:08;;;;;;;;;;;;;;;;;;5054702;28;19933;-80
2022/01/18 04:37:33;;;;;;;;;;;;;;;;;;5056661;28;20364;-82
2022/01/18 04:39:59;;;;;;;;;;;;;;;;;;5055341;28;19931;-79
2022/01/18 04:50:26;;;;;;;;;;;;;;;;;;5056060;28;19979;-80
2022/01/18 04:52:51;;;;;;;;;;;;;;;;;;5054586;28;20312;-81
2022/01/18 04:55:18;;;;;;;;;;;;;;;;;;5055650;28;19920;-81
2022/01/18 04:57:54;;;;;;;;;;;;;;;;;;5056169;28;19912;-81
2022/01/18 05:00:20;;;;;;;;;;;;;;;;;;5054285;28;19917;-81
2022/01/18 05:02:47;;;;;;;;;;;;;;;;;;5044182;28;19928;-81
2022/01/18 05:05:21;;;;;;;;;;;;;;;;;;5039288;28;19913;-80
2022/01/18 05:07:47;;;;;;;;;;;;;;;;;;5054704;28;19967;-80
2022/01/18 05:10:14;;;;;;;;;;;;;;;;;;5055309;28;19917;-82
2022/01/18 05:12:46;;;;;;;;;;;;;;;;;;5055913;28;19917;-81
2022/01/18 05:23:03;;;;;;;;;;;;;;;;;;5056084;28;19916;-79
2022/01/18 05:25:30;;;;;;;;;;;;;;;;;;5050219;28;20037;-80
2022/01/18 05:27:57;;;;;;;;;;;;;;;;;;5055165;28;19917;-79
2022/01/18 05:30:22;;;;;;;;;;;;;;;;;;5065243;28;19917;-81
2022/01/18 05:32:47;;;;;;;;;;;;;;;;;;5054212;28;19936;-80
2022/01/18 05:35:15;;;;;;;;;;;;;;;;;;5054918;28;19935;-80
2022/01/18 05:37:40;;;;;;;;;;;;;;;;;;5054601;28;19927;-80
2022/01/18 05:40:06;;;;;;;;;;;;;;;;;;5055221;28;19913;-82
2022/01/18 05:42:31;;;;;;;;;;;;;;;;;;5053919;28;20019;-82
2022/01/18 05:44:56;;;;;;;;;;;;;;;;;;5055247;28;19975;-80
2022/01/18 05:47:24;;;;;;;;;;;;;;;;;;5054370;28;19944;-81
2022/01/18 05:49:49;;;;;;;;;;;;;;;;;;5054867;28;19917;-80
2022/01/18 05:52:14;;;;;;;;;;;;;;;;;;5055051;28;20408;-80
2022/01/18 05:54:39;;;;;;;;;;;;;;;;;;5054433;28;19970;-80
2022/01/18 05:57:04;;;;;;;;;;;;;;;;;;5055268;28;19940;-80
2022/01/18 05:59:36;;;;;;;;;;;;;;;;;;5054916;28;19947;-81
2022/01/18 06:02:13;;;;;;;;;;;;;;;;;;5048244;28;19925;-80
2022/01/18 06:07:36;;;;;;;;;;;;;;;;;;5012415;28;20247;-81
2022/01/18 06:10:03;;;;;;;;;;;;;;;;;;5050120;28;19927;-81
2022/01/18 06:12:29;;;;;;;;;;;;;;;;;;5054427;28;19917;-81
2022/01/18 06:14:54;;;;;;;;;;;;;;;;;;5054372;28;20296;-81
2022/01/18 06:17:19;;;;;;;;;;;;;;;;;;5054328;28;19917;-81
2022/01/18 06:19:47;;;;;;;;;;;;;;;;;;5054748;28;20011;-81
2022/01/18 06:22:12;;;;;;;;;;;;;;;;;;5054639;28;19970;-79
2022/01/18 06:24:37;;;;;;;;;;;;;;;;;;5053674;28;19920;-81
2022/01/18 06:27:03;;;;;;;;;;;;;;;;;;5053756;28;19921;-81
2022/01/18 06:29:28;;;;;;;;;;;;;;;;;;5052217;28;19917;-80
2022/01/18 06:31:55;;;;;;;;;;;;;;;;;;5054582;28;19917;-80
2022/01/18 06:34:23;;;;;;;;;;;;;;;;;;5054629;28;19921;-79
2022/01/18 06:36:51;;;;;;;;;;;;;;;;;;5057473;28;19917;-79
2022/01/18 06:39:17;;;;;;;;;;;;;;;;;;5054679;28;19974;-80
2022/01/18 06:41:46;;;;;;;;;;;;;;;;;;5054310;28;19925;-80
2022/01/18 06:44:11;;;;;;;;;;;;;;;;;;5054175;28;19921;-80
2022/01/18 06:46:36;;;;;;;;;;;;;;;;;;5053026;28;20350;-81
2022/01/18 06:49:04;;;;;;;;;;;;;;;;;;5045653;28;19920;-81
2022/01/18 06:51:29;;;;;;;;;;;;;;;;;;5054451;28;19916;-80
2022/01/18 06:53:56;;;;;;;;;;;;;;;;;;5053538;28;20362;-80
2022/01/18 06:56:21;;;;;;;;;;;;;;;;;;5053519;28;20373;-81
2022/01/18 06:58:53;;;;;;;;;;;;;;;;;;5055865;28;20004;-81
2022/01/18 07:01:18;;;;;;;;;;;;;;;;;;5052165;28;20231;-80
2022/01/18 07:03:44;;;;;;;;;;;;;;;;;;5051825;28;19923;-81
2022/01/18 07:06:09;;;;;;;;;;;;;;;;;;5060030;28;19928;-80
2022/01/18 07:08:34;;;;;;;;;;;;;;;;;;5050449;28;19917;-81
2022/01/18 07:11:00;;;;;;;;;;;;;;;;;;5047049;28;20016;-80
2022/01/18 07:13:25;;;;;;;;;;;;;;;;;;5058122;28;20293;-80
2022/01/18 07:15:50;;;;;;;;;;;;;;;;;;5046134;28;20289;-80
2022/01/18 07:18:16;;;;;;;;;;;;;;;;;;5049566;28;19917;-81
2022/01/18 07:20:46;;;;;;;;;;;;;;;;;;5056797;28;19917;-80
2022/01/18 07:23:17;;;;;;;;;;;;;;;;;;5057514;28;19948;-80
2022/01/18 07:25:46;;;;;;;;;;;;;;;;;;5057108;28;20353;-80
2022/01/18 07:28:15;;;;;;;;;;;;;;;;;;5058163;28;19921;-80
2022/01/18 07:30:40;;;;;;;;;;;;;;;;;;5056891;28;19920;-80
2022/01/18 07:33:06;;;;;;;;;;;;;;;;;;5057098;28;19993;-80
2022/01/18 07:35:33;;;;;;;;;;;;;;;;;;5057131;28;19931;-82
2022/01/18 07:38:00;;;;;;;;;;;;;;;;;;5057260;28;19917;-82
2022/01/18 07:40:25;;;;;;;;;;;;;;;;;;5056672;28;19928;-80
2022/01/18 07:42:50;;;;;;;;;;;;;;;;;;5039150;28;19917;-81
2022/01/18 07:45:16;;;;;;;;;;;;;;;;;;5057833;28;19913;-81
2022/01/18 07:47:43;;;;;;;;;;;;;;;;;;5057446;28;19932;-80
2022/01/18 07:50:08;;;;;;;;;;;;;;;;;;5058549;28;19921;-81
2022/01/18 07:52:35;;;;;;;;;;;;;;;;;;5063207;28;20290;-81
2022/01/18 07:55:01;;;;;;;;;;;;;;;;;;5060912;28;19923;-81
2022/01/18 07:57:26;;;;;;;;;;;;;;;;;;5056566;28;20265;-82
2022/01/18 07:59:51;;;;;;;;;;;;;;;;;;5055892;28;20003;-81
2022/01/18 08:02:17;;;;;;;;;;;;;;;;;;5056950;28;19924;-81
2022/01/18 08:04:42;;;;;;;;;;;;;;;;;;5061872;28;19913;-81
2022/01/18 08:07:07;;;;;;;;;;;;;;;;;;5053314;28;19917;-79
2022/01/18 08:09:36;;;;;;;;;;;;;;;;;;5036952;28;20247;-80
2022/01/18 08:12:01;;;;;;;;;;;;;;;;;;5054318;28;20527;-81
2022/01/18 08:14:29;;;;;;;;;;;;;;;;;;5057210;28;19926;-80
2022/01/18 08:17:01;;;;;;;;;;;;;;;;;;5056086;28;20294;-81
2022/01/18 08:19:27;;;;;;;;;;;;;;;;;;5055175;28;20003;-82
2022/01/18 08:21:52;;;;;;;;;;;;;;;;;;5056316;28;20341;-81
2022/01/18 08:24:18;;;;;;;;;;;;;;;;;;5046353;28;20020;-82
2022/01/18 08:26:43;;;;;;;;;;;;;;;;;;5063719;28;20242;-82
2022/01/18 08:29:12;;;;;;;;;;;;;;;;;;5056522;28;20438;-83
2022/01/18 08:31:37;;;;;;;;;;;;;;;;;;5033919;28;20873;-83
2022/01/18 08:34:03;;;;;;;;;;;;;;;;;;5034601;28;19940;-82
2022/01/18 08:36:28;;;;;;;;;;;;;;;;;;5028377;28;20342;-81
2022/01/18 08:38:53;;;;;;;;;;;;;;;;;;5034497;28;19952;-81
2022/01/18 08:41:19;;;;;;;;;;;;;;;;;;5033776;28;19969;-79
2022/01/18 08:43:44;;;;;;;;;;;;;;;;;;4998881;28;20317;-80
2022/01/18 08:46:10;;;;;;;;;;;;;;;;;;5032226;28;19917;-80
2022/01/18 08:48:36;;;;;;;;;;;;;;;;;;5034181;28;20369;-81
2022/01/18 08:51:01;;;;;;;;;;;;;;;;;;5007372;28;19917;-81
2022/01/18 08:53:27;;;;;;;;;;;;;;;;;;5033316;28;20020;-81
2022/01/18 08:55:53;;;;;;;;;;;;;;;;;;5029565;28;19974;-82
2022/01/18 08:58:29;;;;;;;;;;;;;;;;;;5052805;28;19952;-82
2022/01/18 09:00:55;;;;;;;;;;;;;;;;;;5051781;28;20302;-81
2022/01/18 09:03:32;;;;;;;;;;;;;;;;;;5052338;28;19920;-80
2022/01/18 09:05:58;;;;;;;;;;;;;;;;;;5053637;28;19912;-81
2022/01/18 09:08:23;;;;;;;;;;;;;;;;;;5045294;28;19927;-80
2022/01/18 09:10:48;;;;;;;;;;;;;;;;;;5059857;28;19917;-77
2022/01/18 09:13:22;;;;;;;;;;;;;;;;;;5061664;28;19923;-78
2022/01/18 09:15:49;;;;;;;;;;;;;;;;;;5047592;28;19917;-78
2022/01/18 09:18:15;;;;;;;;;;;;;;;;;;5051543;28;19901;-79
2022/01/18 09:20:43;;;;;;;;;;;;;;;;;;5062153;28;19952;-80
2022/01/18 09:23:09;;;;;;;;;;;;;;;;;;5061971;28;20384;-79
2022/01/18 09:25:36;;;;;;;;;;;;;;;;;;5064011;28;19917;-80
2022/01/18 09:28:02;;;;;;;;;;;;;;;;;;5062101;28;19959;-81
2022/01/18 09:30:28;;;;;;;;;;;;;;;;;;5054298;28;19953;-79
2022/01/18 09:32:53;;;;;;;;;;;;;;;;;;5056374;28;19913;-78
2022/01/18 09:35:19;;;;;;;;;;;;;;;;;;5054746;28;20321;-79
2022/01/18 09:37:44;;;;;;;;;;;;;;;;;;5050926;28;19921;-79
2022/01/18 09:40:14;;;;;;;;;;;;;;;;;;5053258;28;19920;-79
2022/01/18 09:42:44;;;;;;;;;;;;;;;;;;5052283;28;19917;-78
2022/01/18 09:45:11;;;;;;;;;;;;;;;;;;5048825;28;20079;-80
2022/01/18 09:47:36;;;;;;;;;;;;;;;;;;5051034;28;19917;-79
2022/01/18 09:50:05;;;;;;;;;;;;;;;;;;5051962;28;19916;-79
2022/01/18 09:52:30;;;;;;;;;;;;;;;;;;5049074;28;20364;-79
2022/01/18 09:54:55;;;;;;;;;;;;;;;;;;5048567;28;19943;-79
2022/01/18 09:57:20;;;;;;;;;;;;;;;;;;5050980;28;20342;-79
2022/01/18 09:59:46;;;;;;;;;;;;;;;;;;5048767;28;19917;-79
2022/01/18 10:02:11;;;;;;;;;;;;;;;;;;5056814;28;19927;-80
2022/01/18 10:04:40;;;;;;;;;;;;;;;;;;5053374;28;19916;-80
2022/01/18 10:07:07;;;;;;;;;;;;;;;;;;5034891;28;19913;-78
2022/01/18 10:09:35;;;;;;;;;;;;;;;;;;5041876;28;19943;-79
2022/01/18 10:12:03;;;;;;;;;;;;;;;;;;5053801;28;20007;-78
2022/01/18 10:14:29;;;;;;;;;;;;;;;;;;5054002;28;20273;-78
2022/01/18 10:16:54;;;;;;;;;;;;;;;;;;5054637;28;19917;-76
2022/01/18 10:19:30;;;;;;;;;;;;;;;;;;5054025;28;19919;-78
2022/01/18 10:23:13;;;;;;;;;;;;;;;;;;5052567;28;19916;-81
2022/01/18 10:25:20;;;;;;;;;;;;;;;;;;4977317;28;20431;-78
2022/01/18 10:27:49;;;;;;;;;;;;;;;;;;5040625;28;20318;-79
2022/01/18 10:30:25;;;;;;;;;;;;;;;;;;5025816;28;20328;-80
2022/01/18 10:33:01;;;;;;;;;;;;;;;;;;5042965;28;20033;-80
2022/01/18 10:35:28;;;;;;;;;;;;;;;;;;5029416;28;20358;-80
2022/01/18 10:37:54;;;;;;;;;;;;;;;;;;5031107;28;19916;-79
2022/01/18 10:40:19;;;;;;;;;;;;;;;;;;5030942;28;19917;-81
2022/01/18 10:42:50;;;;;;;;;;;;;;;;;;5028071;28;19920;-79
2022/01/18 10:45:22;;;;;;;;;;;;;;;;;;5046176;28;19917;-79
2022/01/18 10:47:48;;;;;;;;;;;;;;;;;;5045643;28;19977;-80
2022/01/18 10:50:14;;;;;;;;;;;;;;;;;;5043302;28;19921;-81
2022/01/18 10:52:40;;;;;;;;;;;;;;;;;;5028597;28;20042;-80
2022/01/18 10:55:09;;;;;;;;;;;;;;;;;;5043622;28;20015;-79
2022/01/18 10:57:36;;;;;;;;;;;;;;;;;;5047544;28;19928;-83
2022/01/18 11:00:02;;;;;;;;;;;;;;;;;;5027386;28;19921;-83
2022/01/18 11:02:34;;;;;;;;;;;;;;;;;;5044916;28;19991;-81
2022/01/18 11:05:00;;;;;;;;;;;;;;;;;;5048646;28;19965;-80
2022/01/18 11:07:26;;;;;;;;;;;;;;;;;;5045484;28;19917;-81
2022/01/18 11:09:54;;;;;;;;;;;;;;;;;;5042357;28;19983;-78
2022/01/18 11:12:22;;;;;;;;;;;;;;;;;;5048598;28;19916;-79
2022/01/18 11:15:02;;;;;;;;;;;;;;;;;;5053220;28;19995;-79
2022/01/18 11:17:37;;;;;;;;;;;;;;;;;;5034015;28;20247;-79
2022/01/18 11:20:04;;;;;;;;;;;;;;;;;;5043592;28;20004;-78
2022/01/18 11:22:30;;;;;;;;;;;;;;;;;;5053444;28;20266;-80
2022/01/18 11:25:09;;;;;;;;;;;;;;;;;;5050570;28;19917;-81
2022/01/18 11:27:35;;;;;;;;;;;;;;;;;;5044124;28;20246;-84
2022/01/18 11:30:00;;;;;;;;;;;;;;;;;;5047199;28;19947;-79
2022/01/18 11:32:41;;;;;;;;;;;;;;;;;;5049472;28;20024;-81
2022/01/18 11:35:15;;;;;;;;;;;;;;;;;;5047653;28;19933;-83
2022/01/18 11:37:56;;;;;;;;;;;;;;;;;;5052017;28;19924;-80
2022/01/18 11:40:23;;;;;;;;;;;;;;;;;;5051244;28;20357;-79
2022/01/18 11:42:50;;;;;;;;;;;;;;;;;;5053499;28;19913;-77
2022/01/18 11:45:25;;;;;;;;;;;;;;;;;;5053538;28;20505;-77
2022/01/18 11:48:02;;;;;;;;;;;;;;;;;;5056414;28;20020;-80
2022/01/18 11:50:32;;;;;;;;;;;;;;;;;;5054645;28;19970;-77
2022/01/18 11:53:22;;;;;;;;;;;;;;;;;;5056049;28;20321;-78
2022/01/18 11:55:47;;;;;;;;;;;;;;;;;;5053740;28;20253;-78
2022/01/18 11:58:12;;;;;;;;;;;;;;;;;;5053691;28;19917;-79
2022/01/18 12:00:52;;;;;;;;;;;;;;;;;;5055934;28;19956;-79
2022/01/18 12:03:19;;;;;;;;;;;;;;;;;;5046720;28;19999;-80
2022/01/18 12:05:46;;;;;;;;;;;;;;;;;;5046585;28;20380;-77
2022/01/18 12:08:28;;;;;;;;;;;;;;;;;;5038672;28;19956;-76
2022/01/18 12:10:58;;;;;;;;;;;;;;;;;;5046070;28;19925;-77
2022/01/18 12:13:32;;;;;;;;;;;;;;;;;;5054578;28;19992;-78
2022/01/18 12:15:58;;;;;;;;;;;;;;;;;;5053788;28;19931;-78
2022/01/18 12:18:26;;;;;;;;;;;;;;;;;;5056204;28;19984;-77
2022/01/18 12:20:52;;;;;;;;;;;;;;;;;;5053552;28;19917;-76
2022/01/18 12:23:23;;;;;;;;;;;;;;;;;;5053427;28;19921;-80
2022/01/18 12:26:20;;;;;;;;;;;;;;;;;;5056529;28;19917;-78
2022/01/18 12:31:41;;;;;;;;;;;;;;;;;;5051716;28;20264;-77
2022/01/18 12:34:24;;;;;;;;;;;;;;;;;;5057538;28;20011;-80
2022/01/18 12:36:50;;;;;;;;;;;;;;;;;;5051808;28;19917;-76
2022/01/18 12:39:17;;;;;;;;;;;;;;;;;;5043928;28;19917;-80
2022/01/18 12:42:12;;;;;;;;;;;;;;;;;;5059033;28;19970;-78
2022/01/18 12:44:45;;;;;;;;;;;;;;;;;;5055975;28;20292;-78
2022/01/18 12:47:10;;;;;;;;;;;;;;;;;;5057248;28;20287;-76
2022/01/18 12:49:37;;;;;;;;;;;;;;;;;;5051950;28;19917;-77
2022/01/18 12:52:03;;;;;;;;;;;;;;;;;;5056348;28;19913;-77
2022/01/18 12:54:42;;;;;;;;;;;;;;;;;;5056110;28;19912;-78
2022/01/18 12:57:18;;;;;;;;;;;;;;;;;;5054740;28;20357;-77
2022/01/18 13:00:04;;;;;;;;;;;;;;;;;;5054161;28;20354;-78
2022/01/18 13:02:29;;;;;;;;;;;;;;;;;;5036506;28;19950;-78
2022/01/18 13:05:07;;;;;;;;;;;;;;;;;;5053322;28;19964;-79
2022/01/18 13:07:33;;;;;;;;;;;;;;;;;;5050350;28;19916;-79
2022/01/18 13:10:04;;;;;;;;;;;;;;;;;;5054534;28;20016;-78
2022/01/18 13:12:43;;;;;;;;;;;;;;;;;;5038153;28;20478;-80
2022/01/18 13:15:09;;;;;;;;;;;;;;;;;;5052497;28;19917;-80
2022/01/18 13:23:23;;;;;;;;;;;;;;;;;;5051632;28;20332;-81
2022/01/18 13:25:57;;;;;;;;;;;;;;;;;;5053546;28;19924;-80
2022/01/18 13:28:35;;;;;;;;;;;;;;;;;;5048791;28;19987;-81
2022/01/18 13:31:13;;;;;;;;;;;;;;;;;;5052520;28;19924;-81
2022/01/18 13:33:53;;;;;;;;;;;;;;;;;;5051493;28;19921;-82
2022/01/18 13:36:20;;;;;;;;;;;;;;;;;;5054302;28;19917;-81
2022/01/18 13:38:46;;;;;;;;;;;;;;;;;;5054681;28;19916;-79
2022/01/18 13:41:16;;;;;;;;;;;;;;;;;;5053500;28;19920;-81
2022/01/18 13:43:42;;;;;;;;;;;;;;;;;;5053794;28;20000;-82
2022/01/18 13:46:08;;;;;;;;;;;;;;;;;;5054530;28;20062;-81
2022/01/18 13:48:33;;;;;;;;;;;;;;;;;;5041636;28;20365;-81
2022/01/18 13:50:59;;;;;;;;;;;;;;;;;;5051168;28;20375;-81
2022/01/18 13:53:31;;;;;;;;;;;;;;;;;;5053995;28;19916;-82
2022/01/18 13:55:57;;;;;;;;;;;;;;;;;;5053166;28;19949;-81
2022/01/18 13:58:28;;;;;;;;;;;;;;;;;;5043388;28;19913;-79
2022/01/18 14:01:04;;;;;;;;;;;;;;;;;;5053823;28;19928;-81
2022/01/18 14:03:33;;;;;;;;;;;;;;;;;;5053434;28;19917;-82
2022/01/18 14:05:59;;;;;;;;;;;;;;;;;;5054366;28;19917;-81
2022/01/18 14:08:30;;;;;;;;;;;;;;;;;;5031674;28;20274;-81
2022/01/18 14:11:02;;;;;;;;;;;;;;;;;;5040514;28;19928;-82
2022/01/18 14:13:29;;;;;;;;;;;;;;;;;;5051509;28;19917;-80
2022/01/18 14:15:55;;;;;;;;;;;;;;;;;;5053231;28;20230;-79
2022/01/18 14:18:20;;;;;;;;;;;;;;;;;;5051446;28;19928;-78
2022/01/18 14:20:45;;;;;;;;;;;;;;;;;;5053051;28;19912;-79
2022/01/18 14:23:20;;;;;;;;;;;;;;;;;;5044583;28;19916;-80
2022/01/18 14:25:46;;;;;;;;;;;;;;;;;;5047143;28;19917;-79
2022/01/18 14:28:14;;;;;;;;;;;;;;;;;;5049610;28;20340;-79
2022/01/18 14:30:51;;;;;;;;;;;;;;;;;;5049785;28;20319;-83
2022/01/18 14:33:17;;;;;;;;;;;;;;;;;;5053608;28;20011;-79
2022/01/18 14:35:43;;;;;;;;;;;;;;;;;;5040547;28;20306;-79
2022/01/18 14:38:17;;;;;;;;;;;;;;;;;;5051583;28;19917;-80
2022/01/18 14:40:44;;;;;;;;;;;;;;;;;;5047593;28;19913;-81
2022/01/18 14:43:18;;;;;;;;;;;;;;;;;;5029214;28;20503;-80
2022/01/18 14:48:40;;;;;;;;;;;;;;;;;;5044042;28;19923;-77
2022/01/18 14:51:05;;;;;;;;;;;;;;;;;;5053952;28;20023;-78
2022/01/18 14:53:31;;;;;;;;;;;;;;;;;;5053861;28;19966;-78
2022/01/18 14:55:56;;;;;;;;;;;;;;;;;;5054213;28;19913;-79
2022/01/18 14:58:22;;;;;;;;;;;;;;;;;;5052699;28;19916;-78
2022/01/18 15:00:47;;;;;;;;;;;;;;;;;;5053588;28;19917;-79
2022/01/18 15:03:16;;;;;;;;;;;;;;;;;;5053023;28;19917;-78
2022/01/18 15:05:42;;;;;;;;;;;;;;;;;;5053781;28;19952;-78
2022/01/18 15:08:10;;;;;;;;;;;;;;;;;;5050421;28;19928;-78
2022/01/18 15:10:35;;;;;;;;;;;;;;;;;;5047958;28;19946;-75
2022/01/18 15:13:05;;;;;;;;;;;;;;;;;;5053104;28;20001;-74
2022/01/18 15:15:30;;;;;;;;;;;;;;;;;;5053639;28;19928;-74
2022/01/18 15:17:57;;;;;;;;;;;;;;;;;;5052973;28;19917;-75
2022/01/18 15:20:23;;;;;;;;;;;;;;;;;;5055350;28;19983;-74
2022/01/18 15:22:56;;;;;;;;;;;;;;;;;;5073596;28;19912;-73
2022/01/18 15:25:21;;;;;;;;;;;;;;;;;;5057411;28;19919;-74
2022/01/18 15:27:47;;;;;;;;;;;;;;;;;;5056677;28;19917;-74
2022/01/18 15:30:12;;;;;;;;;;;;;;;;;;5057364;28;19921;-74
2022/01/18 15:32:41;;;;;;;;;;;;;;;;;;5045714;28;20327;-74
2022/01/18 15:35:06;;;;;;;;;;;;;;;;;;5056925;28;19920;-74
2022/01/18 15:37:32;;;;;;;;;;;;;;;;;;5056757;28;19935;-74
2022/01/18 15:40:01;;;;;;;;;;;;;;;;;;5057592;28;19916;-73
2022/01/18 15:42:26;;;;;;;;;;;;;;;;;;5057111;28;19917;-73
2022/01/18 15:44:51;;;;;;;;;;;;;;;;;;5055535;28;20016;-73
2022/01/18 15:47:16;;;;;;;;;;;;;;;;;;5055946;28;19925;-73
2022/01/18 15:49:42;;;;;;;;;;;;;;;;;;5056688;28;19980;-74
2022/01/18 15:52:07;;;;;;;;;;;;;;;;;;5054518;28;19924;-73
2022/01/18 15:54:33;;;;;;;;;;;;;;;;;;5057516;28;19923;-73
2022/01/18 15:56:58;;;;;;;;;;;;;;;;;;5051591;28;19940;-72
2022/01/18 15:59:23;;;;;;;;;;;;;;;;;;5054820;28;19917;-74
2022/01/18 16:01:49;;;;;;;;;;;;;;;;;;5057232;28;20337;-77
2022/01/18 16:04:14;;;;;;;;;;;;;;;;;;5057245;28;20007;-78
2022/01/18 16:06:39;;;;;;;;;;;;;;;;;;5057253;28;19936;-80
2022/01/18 16:09:07;;;;;;;;;;;;;;;;;;5047510;28;19936;-81
2022/01/18 16:11:45;;;;;;;;;;;;;;;;;;5049397;28;19917;-82
2022/01/18 16:14:12;;;;;;;;;;;;;;;;;;5053956;28;19986;-79
2022/01/18 16:16:39;;;;;;;;;;;;;;;;;;5045866;28;19917;-82
2022/01/18 16:19:05;;;;;;;;;;;;;;;;;;5050559;28;20418;-78
2022/01/18 16:21:30;;;;;;;;;;;;;;;;;;5048296;28;19920;-78
2022/01/18 16:23:58;;;;;;;;;;;;;;;;;;5046464;28;19968;-77
2022/01/18 16:26:23;;;;;;;;;;;;;;;;;;5045465;28;20328;-78
2022/01/18 16:28:49;;;;;;;;;;;;;;;;;;5053522;28;19956;-78
2022/01/18 16:31:37;;;;;;;;;;;;;;;;;;5044914;28;19917;-78
2022/01/18 16:34:05;;;;;;;;;;;;;;;;;;5026893;28;19913;-78
2022/01/18 16:36:34;;;;;;;;;;;;;;;;;;5027743;28;19917;-78
2022/01/18 16:38:59;;;;;;;;;;;;;;;;;;5021501;28;19949;-76
2022/01/18 16:41:30;;;;;;;;;;;;;;;;;;5032171;28;19948;-77
2022/01/18 16:43:55;;;;;;;;;;;;;;;;;;5017424;28;20113;-78
2022/01/18 16:46:21;;;;;;;;;;;;;;;;;;5035147;28;19952;-77
2022/01/18 16:48:49;;;;;;;;;;;;;;;;;;5031398;28;20360;-78
2022/01/18 16:51:14;;;;;;;;;;;;;;;;;;5034771;28;19960;-77
2022/01/18 16:53:39;;;;;;;;;;;;;;;;;;5017997;28;19921;-76
2022/01/18 16:56:05;;;;;;;;;;;;;;;;;;5015936;28;20295;-77
2022/01/18 16:58:30;;;;;;;;;;;;;;;;;;5033451;28;20346;-77
2022/01/18 17:00:55;;;;;;;;;;;;;;;;;;5023198;28;20378;-76
2022/01/18 17:03:23;;;;;;;;;;;;;;;;;;5017488;28;19932;-76
2022/01/18 17:05:50;;;;;;;;;;;;;;;;;;5033464;28;19905;-76
2022/01/18 17:08:16;;;;;;;;;;;;;;;;;;5031694;28;19917;-76
2022/01/18 17:10:41;;;;;;;;;;;;;;;;;;5041332;28;19921;-77
2022/01/18 17:13:07;;;;;;;;;;;;;;;;;;5055819;28;19917;-77
2022/01/18 17:15:32;;;;;;;;;;;;;;;;;;5055727;28;20358;-77
2022/01/18 17:17:58;;;;;;;;;;;;;;;;;;5055752;28;19993;-76
2022/01/18 17:20:23;;;;;;;;;;;;;;;;;;5055208;28;19928;-76
2022/01/18 17:22:48;;;;;;;;;;;;;;;;;;5053466;28;19955;-76
2022/01/18 17:25:14;;;;;;;;;;;;;;;;;;5056186;28;19917;-77
2022/01/18 17:27:41;;;;;;;;;;;;;;;;;;5055554;28;19913;-77
2022/01/18 17:30:09;;;;;;;;;;;;;;;;;;5055450;28;20059;-77
2022/01/18 17:32:37;;;;;;;;;;;;;;;;;;5055581;28;19928;-76
2022/01/18 17:35:02;;;;;;;;;;;;;;;;;;5055657;28;19946;-77
2022/01/18 17:37:27;;;;;;;;;;;;;;;;;;5055159;28;19925;-77
2022/01/18 17:39:53;;;;;;;;;;;;;;;;;;5055796;28;19935;-79
2022/01/18 17:42:18;;;;;;;;;;;;;;;;;;5053142;28;20480;-77
2022/01/18 17:44:45;;;;;;;;;;;;;;;;;;5041981;28;20357;-80
2022/01/18 17:47:11;;;;;;;;;;;;;;;;;;5053106;28;19982;-77
2022/01/18 17:49:36;;;;;;;;;;;;;;;;;;5054942;28;19920;-79
2022/01/18 17:52:01;;;;;;;;;;;;;;;;;;5054619;28;19975;-77
2022/01/18 17:54:26;;;;;;;;;;;;;;;;;;5052983;28;20050;-77
2022/01/18 17:56:54;;;;;;;;;;;;;;;;;;5052287;28;19920;-77
2022/01/18 17:59:19;;;;;;;;;;;;;;;;;;5050584;28;19917;-77
2022/01/18 18:01:48;;;;;;;;;;;;;;;;;;5054106;28;19917;-78
2022/01/18 18:04:13;;;;;;;;;;;;;;;;;;5054111;28;19916;-79
2022/01/18 18:06:39;;;;;;;;;;;;;;;;;;5050924;28;19936;-79
2022/01/18 18:09:06;;;;;;;;;;;;;;;;;;5048523;28;19925;-79
2022/01/18 18:11:32;;;;;;;;;;;;;;;;;;5052888;28;19921;-78
2022/01/18 18:13:57;;;;;;;;;;;;;;;;;;5050818;28;20082;-77